sensor_id;sensor_type;location;lat;lon;timestamp;pressure;altitude;pressure_sealevel;temperature;humidity
76124;BME280;65173;48.066;20.976;2023-04-25T00:01:33;99339.91;;;11.83;100.00
76124;BME280;65173;48.066;20.976;2023-04-25T00:04:38;99323.56;;;11.85;100.00
76124;BME280;65173;48.066;20.976;2023-04-25T00:07:42;99328.91;;;11.85;100.00
76124;BME280;65173;48.066;20.976;2023-04-25T00:10:45;99327.06;;;11.73;100.00
76124;BME280;65173;48.066;20.976;2023-04-25T00:13:48;99318.53;;;11.68;100.00
76124;BME280;65173;48.066;20.976;2023-04-25T00:16:52;99317.06;;;11.70;100.00
76124;BME280;65173;48.066;20.976;2023-04-25T00:19:55;99313.22;;;11.83;100.00
76124;BME280;65173;48.066;20.976;2023-04-25T00:22:58;99302.38;;;11.92;100.00
76124;BME280;65173;48.066;20.976;2023-04-25T00:26:01;99297.38;;;11.91;100.00
76124;BME280;65173;48.066;20.976;2023-04-25T00:29:04;99301.59;;;11.76;100.00
76124;BME280;65173;48.066;20.976;2023-04-25T00:32:07;99298.59;;;11.77;100.00
76124;BME280;65173;48.066;20.976;2023-04-25T00:35:09;99301.81;;;11.71;100.00
76124;BME280;65173;48.066;20.976;2023-04-25T00:38:13;99297.81;;;11.77;100.00
76124;BME280;65173;48.066;20.976;2023-04-25T00:41:16;99301.56;;;11.60;100.00
76124;BME280;65173;48.066;20.976;2023-04-25T00:44:19;99298.38;;;11.70;100.00
76124;BME280;65173;48.066;20.976;2023-04-25T00:47:22;99298.03;;;11.56;100.00
76124;BME280;65173;48.066;20.976;2023-04-25T00:50:25;99293.28;;;11.49;100.00
76124;BME280;65173;48.066;20.976;2023-04-25T00:53:28;99296.72;;;11.50;100.00
76124;BME280;65173;48.066;20.976;2023-04-25T00:56:32;99290.16;;;11.47;100.00
76124;BME280;65173;48.066;20.976;2023-04-25T00:59:36;99279.09;;;11.45;100.00
76124;BME280;65173;48.066;20.976;2023-04-25T01:02:39;99267.22;;;11.59;100.00
76124;BME280;65173;48.066;20.976;2023-04-25T01:05:43;99279.69;;;11.55;100.00
76124;BME280;65173;48.066;20.976;2023-04-25T01:08:47;99273.75;;;11.61;100.00
76124;BME280;65173;48.066;20.976;2023-04-25T01:11:50;99268.75;;;11.60;100.00
76124;BME280;65173;48.066;20.976;2023-04-25T01:14:54;99271.00;;;11.58;100.00
76124;BME280;65173;48.066;20.976;2023-04-25T01:17:57;99275.22;;;11.43;100.00
76124;BME280;65173;48.066;20.976;2023-04-25T01:21:10;99281.56;;;11.38;100.00
76124;BME280;65173;48.066;20.976;2023-04-25T01:24:13;99275.69;;;11.33;100.00
76124;BME280;65173;48.066;20.976;2023-04-25T01:27:16;99266.75;;;11.25;100.00
76124;BME280;65173;48.066;20.976;2023-04-25T01:30:21;99266.25;;;11.51;100.00
76124;BME280;65173;48.066;20.976;2023-04-25T01:33:24;99270.03;;;11.50;100.00
76124;BME280;65173;48.066;20.976;2023-04-25T01:36:27;99266.88;;;11.44;100.00
76124;BME280;65173;48.066;20.976;2023-04-25T01:39:31;99259.69;;;11.48;100.00
76124;BME280;65173;48.066;20.976;2023-04-25T01:42:35;99250.84;;;11.44;100.00
76124;BME280;65173;48.066;20.976;2023-04-25T01:45:39;99261.53;;;11.44;100.00
76124;BME280;65173;48.066;20.976;2023-04-25T01:48:46;99259.34;;;11.50;100.00
76124;BME280;65173;48.066;20.976;2023-04-25T01:51:49;99250.16;;;11.47;100.00
76124;BME280;65173;48.066;20.976;2023-04-25T01:54:53;99245.84;;;11.43;100.00
76124;BME280;65173;48.066;20.976;2023-04-25T01:57:56;99247.56;;;11.35;100.00
76124;BME280;65173;48.066;20.976;2023-04-25T02:01:10;99244.78;;;11.16;100.00
76124;BME280;65173;48.066;20.976;2023-04-25T02:04:21;99249.19;;;11.24;100.00
76124;BME280;65173;48.066;20.976;2023-04-25T02:07:25;99255.94;;;11.06;100.00
76124;BME280;65173;48.066;20.976;2023-04-25T02:10:29;99252.53;;;10.93;100.00
76124;BME280;65173;48.066;20.976;2023-04-25T02:13:50;99244.13;;;10.91;100.00
76124;BME280;65173;48.066;20.976;2023-04-25T02:17:11;99236.13;;;10.91;100.00
76124;BME280;65173;48.066;20.976;2023-04-25T02:20:15;99245.25;;;10.90;100.00
76124;BME280;65173;48.066;20.976;2023-04-25T02:23:22;99235.03;;;10.92;100.00
76124;BME280;65173;48.066;20.976;2023-04-25T02:26:25;99237.75;;;10.96;100.00
76124;BME280;65173;48.066;20.976;2023-04-25T02:29:29;99227.97;;;11.00;100.00
76124;BME280;65173;48.066;20.976;2023-04-25T02:32:32;99242.97;;;11.04;100.00
76124;BME280;65173;48.066;20.976;2023-04-25T02:35:37;99232.28;;;11.04;100.00
76124;BME280;65173;48.066;20.976;2023-04-25T02:38:40;99237.38;;;11.09;100.00
76124;BME280;65173;48.066;20.976;2023-04-25T02:41:43;99236.94;;;11.07;100.00
76124;BME280;65173;48.066;20.976;2023-04-25T02:44:45;99232.38;;;11.08;100.00
76124;BME280;65173;48.066;20.976;2023-04-25T02:47:48;99225.78;;;11.18;100.00
76124;BME280;65173;48.066;20.976;2023-04-25T02:50:53;99225.78;;;11.33;100.00
76124;BME280;65173;48.066;20.976;2023-04-25T02:53:57;99227.78;;;11.36;100.00
76124;BME280;65173;48.066;20.976;2023-04-25T02:56:59;99222.09;;;11.38;100.00
76124;BME280;65173;48.066;20.976;2023-04-25T03:00:07;99230.63;;;11.43;100.00
76124;BME280;65173;48.066;20.976;2023-04-25T03:03:10;99214.53;;;11.40;100.00
76124;BME280;65173;48.066;20.976;2023-04-25T03:06:14;99216.13;;;11.29;100.00
76124;BME280;65173;48.066;20.976;2023-04-25T03:09:18;99218.31;;;11.23;100.00
76124;BME280;65173;48.066;20.976;2023-04-25T03:12:21;99218.31;;;11.23;100.00
76124;BME280;65173;48.066;20.976;2023-04-25T03:15:23;99213.31;;;11.22;100.00
76124;BME280;65173;48.066;20.976;2023-04-25T03:18:27;99212.97;;;11.23;100.00
76124;BME280;65173;48.066;20.976;2023-04-25T03:21:31;99217.09;;;11.36;100.00
76124;BME280;65173;48.066;20.976;2023-04-25T03:24:35;99213.91;;;11.46;100.00
76124;BME280;65173;48.066;20.976;2023-04-25T03:27:39;99202.72;;;11.57;100.00
76124;BME280;65173;48.066;20.976;2023-04-25T03:30:42;99200.75;;;11.54;100.00
76124;BME280;65173;48.066;20.976;2023-04-25T03:33:45;99195.16;;;11.43;100.00
76124;BME280;65173;48.066;20.976;2023-04-25T03:36:48;99200.50;;;11.43;100.00
76124;BME280;65173;48.066;20.976;2023-04-25T03:39:51;99201.78;;;11.49;100.00
76124;BME280;65173;48.066;20.976;2023-04-25T03:42:54;99203.84;;;11.56;100.00
76124;BME280;65173;48.066;20.976;2023-04-25T03:45:57;99195.59;;;11.61;100.00
76124;BME280;65173;48.066;20.976;2023-04-25T03:49:01;99201.94;;;11.56;100.00
76124;BME280;65173;48.066;20.976;2023-04-25T03:52:21;99197.03;;;11.58;100.00
76124;BME280;65173;48.066;20.976;2023-04-25T03:55:24;99204.03;;;11.78;100.00
76124;BME280;65173;48.066;20.976;2023-04-25T03:58:28;99205.81;;;11.74;100.00
76124;BME280;65173;48.066;20.976;2023-04-25T04:01:30;99204.19;;;11.86;100.00
76124;BME280;65173;48.066;20.976;2023-04-25T04:04:33;99210.38;;;11.90;100.00
76124;BME280;65173;48.066;20.976;2023-04-25T04:07:36;99199.81;;;11.77;100.00
76124;BME280;65173;48.066;20.976;2023-04-25T04:10:47;99197.63;;;11.67;100.00
76124;BME280;65173;48.066;20.976;2023-04-25T04:13:50;99207.38;;;11.60;100.00
76124;BME280;65173;48.066;20.976;2023-04-25T04:16:53;99204.72;;;11.44;100.00
76124;BME280;65173;48.066;20.976;2023-04-25T04:19:56;99216.41;;;11.39;100.00
76124;BME280;65173;48.066;20.976;2023-04-25T04:23:00;99210.41;;;11.42;100.00
76124;BME280;65173;48.066;20.976;2023-04-25T04:26:05;99214.78;;;11.35;100.00
76124;BME280;65173;48.066;20.976;2023-04-25T04:29:28;99216.91;;;11.29;100.00
76124;BME280;65173;48.066;20.976;2023-04-25T04:32:40;99210.91;;;11.32;100.00
76124;BME280;65173;48.066;20.976;2023-04-25T04:35:42;99212.28;;;11.42;100.00
76124;BME280;65173;48.066;20.976;2023-04-25T04:38:46;99217.63;;;11.42;100.00
76124;BME280;65173;48.066;20.976;2023-04-25T04:41:57;99210.66;;;11.53;100.00
76124;BME280;65173;48.066;20.976;2023-04-25T04:45:25;99207.38;;;11.75;100.00
76124;BME280;65173;48.066;20.976;2023-04-25T04:48:48;99198.69;;;11.63;100.00
76124;BME280;65173;48.066;20.976;2023-04-25T04:52:14;99204.59;;;11.72;100.00
76124;BME280;65173;48.066;20.976;2023-04-25T04:55:49;99209.47;;;11.82;100.00
76124;BME280;65173;48.066;20.976;2023-04-25T04:59:07;99209.16;;;11.71;100.00
76124;BME280;65173;48.066;20.976;2023-04-25T05:02:17;99208.75;;;11.69;100.00
76124;BME280;65173;48.066;20.976;2023-04-25T05:05:46;99206.59;;;11.75;100.00
76124;BME280;65173;48.066;20.976;2023-04-25T05:09:16;99201.84;;;11.68;100.00
76124;BME280;65173;48.066;20.976;2023-04-25T05:12:44;99207.19;;;11.68;100.00
76124;BME280;65173;48.066;20.976;2023-04-25T05:16:04;99200.66;;;11.66;100.00
76124;BME280;65173;48.066;20.976;2023-04-25T05:19:22;99196.25;;;11.73;100.00
76124;BME280;65173;48.066;20.976;2023-04-25T05:22:45;99204.19;;;11.70;100.00
76124;BME280;65173;48.066;20.976;2023-04-25T05:25:54;99200.81;;;11.73;100.00
76124;BME280;65173;48.066;20.976;2023-04-25T05:29:07;99201.25;;;11.75;100.00
76124;BME280;65173;48.066;20.976;2023-04-25T05:32:32;99202.72;;;11.72;100.00
76124;BME280;65173;48.066;20.976;2023-04-25T05:35:35;99198.34;;;11.64;100.00
76124;BME280;65173;48.066;20.976;2023-04-25T05:38:38;99196.41;;;11.65;100.00
76124;BME280;65173;48.066;20.976;2023-04-25T05:42:12;99198.28;;;11.76;100.00
76124;BME280;65173;48.066;20.976;2023-04-25T05:45:38;99201.59;;;11.89;100.00
76124;BME280;65173;48.066;20.976;2023-04-25T05:49:02;99192.25;;;11.79;100.00
76124;BME280;65173;48.066;20.976;2023-04-25T05:52:16;99196.16;;;11.86;100.00
76124;BME280;65173;48.066;20.976;2023-04-25T05:55:25;99195.13;;;11.90;100.00
76124;BME280;65173;48.066;20.976;2023-04-25T05:58:28;99193.41;;;11.98;100.00
76124;BME280;65173;48.066;20.976;2023-04-25T06:01:32;99196.50;;;12.00;100.00
76124;BME280;65173;48.066;20.976;2023-04-25T06:04:35;99193.56;;;12.05;100.00
76124;BME280;65173;48.066;20.976;2023-04-25T06:07:38;99190.78;;;12.01;100.00
76124;BME280;65173;48.066;20.976;2023-04-25T06:10:41;99200.34;;;12.02;100.00
76124;BME280;65173;48.066;20.976;2023-04-25T06:13:43;99198.66;;;11.94;100.00
76124;BME280;65173;48.066;20.976;2023-04-25T06:16:47;99195.31;;;11.97;100.00
76124;BME280;65173;48.066;20.976;2023-04-25T06:19:50;99201.00;;;11.96;100.00
76124;BME280;65173;48.066;20.976;2023-04-25T06:22:53;99203.56;;;11.92;100.00
76124;BME280;65173;48.066;20.976;2023-04-25T06:26:02;99200.56;;;11.94;100.00
76124;BME280;65173;48.066;20.976;2023-04-25T06:29:06;99201.72;;;12.12;100.00
76124;BME280;65173;48.066;20.976;2023-04-25T06:32:09;99203.53;;;12.08;100.00
76124;BME280;65173;48.066;20.976;2023-04-25T06:35:12;99193.31;;;11.94;100.00
76124;BME280;65173;48.066;20.976;2023-04-25T06:38:15;99202.03;;;11.91;100.00
76124;BME280;65173;48.066;20.976;2023-04-25T06:41:22;99203.94;;;11.91;100.00
76124;BME280;65173;48.066;20.976;2023-04-25T06:44:24;99202.38;;;11.90;100.00
76124;BME280;65173;48.066;20.976;2023-04-25T06:47:28;99198.88;;;12.05;100.00
76124;BME280;65173;48.066;20.976;2023-04-25T06:50:33;99196.97;;;12.40;100.00
76124;BME280;65173;48.066;20.976;2023-04-25T06:53:36;99204.44;;;12.31;100.00
76124;BME280;65173;48.066;20.976;2023-04-25T06:56:42;99199.19;;;12.19;100.00
76124;BME280;65173;48.066;20.976;2023-04-25T06:59:48;99199.56;;;12.18;100.00
76124;BME280;65173;48.066;20.976;2023-04-25T07:02:51;99196.44;;;11.96;100.00
76124;BME280;65173;48.066;20.976;2023-04-25T07:05:54;99201.47;;;12.01;100.00
76124;BME280;65173;48.066;20.976;2023-04-25T07:08:58;99194.41;;;12.09;100.00
76124;BME280;65173;48.066;20.976;2023-04-25T07:12:01;99189.00;;;12.25;100.00
76124;BME280;65173;48.066;20.976;2023-04-25T07:15:04;99199.94;;;12.35;100.00
76124;BME280;65173;48.066;20.976;2023-04-25T07:18:09;99196.13;;;12.56;100.00
76124;BME280;65173;48.066;20.976;2023-04-25T07:21:13;99202.31;;;12.60;100.00
76124;BME280;65173;48.066;20.976;2023-04-25T07:24:18;99195.84;;;12.61;100.00
76124;BME280;65173;48.066;20.976;2023-04-25T07:27:22;99199.53;;;12.52;100.00
76124;BME280;65173;48.066;20.976;2023-04-25T07:30:30;99202.59;;;12.74;100.00
76124;BME280;65173;48.066;20.976;2023-04-25T07:33:33;99199.63;;;12.79;100.00
76124;BME280;65173;48.066;20.976;2023-04-25T07:36:36;99196.34;;;12.85;100.00
76124;BME280;65173;48.066;20.976;2023-04-25T07:39:39;99204.53;;;12.96;100.00
76124;BME280;65173;48.066;20.976;2023-04-25T07:42:42;99199.97;;;12.97;100.00
76124;BME280;65173;48.066;20.976;2023-04-25T07:45:46;99204.44;;;12.89;100.00
76124;BME280;65173;48.066;20.976;2023-04-25T07:48:51;99203.78;;;12.96;100.00
76124;BME280;65173;48.066;20.976;2023-04-25T07:51:54;99202.84;;;13.07;100.00
76124;BME280;65173;48.066;20.976;2023-04-25T07:54:58;99212.72;;;13.03;100.00
76124;BME280;65173;48.066;20.976;2023-04-25T07:58:09;99227.72;;;12.89;100.00
76124;BME280;65173;48.066;20.976;2023-04-25T08:01:14;99231.38;;;12.42;100.00
76124;BME280;65173;48.066;20.976;2023-04-25T08:04:28;99231.88;;;12.12;100.00
76124;BME280;65173;48.066;20.976;2023-04-25T08:07:38;99228.56;;;12.00;100.00
76124;BME280;65173;48.066;20.976;2023-04-25T08:10:43;99236.84;;;11.79;100.00
76124;BME280;65173;48.066;20.976;2023-04-25T08:13:48;99231.84;;;11.77;100.00
76124;BME280;65173;48.066;20.976;2023-04-25T08:16:50;99229.63;;;11.79;100.00
76124;BME280;65173;48.066;20.976;2023-04-25T08:19:54;99220.19;;;11.86;100.00
76124;BME280;65173;48.066;20.976;2023-04-25T08:23:02;99223.31;;;11.88;100.00
76124;BME280;65173;48.066;20.976;2023-04-25T08:26:21;99220.19;;;11.70;100.00
76124;BME280;65173;48.066;20.976;2023-04-25T08:29:25;99222.53;;;11.87;100.00
76124;BME280;65173;48.066;20.976;2023-04-25T08:32:28;99231.22;;;11.68;100.00
76124;BME280;65173;48.066;20.976;2023-04-25T08:35:50;99219.94;;;11.43;100.00
76124;BME280;65173;48.066;20.976;2023-04-25T08:38:53;99226.13;;;11.32;100.00
76124;BME280;65173;48.066;20.976;2023-04-25T08:41:57;99229.06;;;11.27;100.00
76124;BME280;65173;48.066;20.976;2023-04-25T08:45:02;99232.50;;;11.27;100.00
76124;BME280;65173;48.066;20.976;2023-04-25T08:48:14;99230.31;;;11.17;100.00
76124;BME280;65173;48.066;20.976;2023-04-25T08:51:23;99220.53;;;11.21;100.00
76124;BME280;65173;48.066;20.976;2023-04-25T08:54:28;99230.16;;;11.10;100.00
76124;BME280;65173;48.066;20.976;2023-04-25T08:57:37;99228.59;;;11.09;100.00
76124;BME280;65173;48.066;20.976;2023-04-25T09:00:40;99231.66;;;10.95;100.00
76124;BME280;65173;48.066;20.976;2023-04-25T09:03:45;99236.13;;;10.91;100.00
76124;BME280;65173;48.066;20.976;2023-04-25T09:06:49;99234.81;;;10.85;100.00
76124;BME280;65173;48.066;20.976;2023-04-25T09:09:52;99241.94;;;10.81;100.00
76124;BME280;65173;48.066;20.976;2023-04-25T09:13:08;99246.53;;;10.68;100.00
76124;BME280;65173;48.066;20.976;2023-04-25T09:16:29;99245.44;;;10.57;100.00
76124;BME280;65173;48.066;20.976;2023-04-25T09:20:07;99251.09;;;10.68;100.00
76124;BME280;65173;48.066;20.976;2023-04-25T09:23:10;99249.91;;;10.53;100.00
76124;BME280;65173;48.066;20.976;2023-04-25T09:26:15;99245.38;;;10.54;100.00
76124;BME280;65173;48.066;20.976;2023-04-25T09:29:28;99252.25;;;10.55;100.00
76124;BME280;65173;48.066;20.976;2023-04-25T09:37:29;99264.03;;;10.54;100.00
76124;BME280;65173;48.066;20.976;2023-04-25T09:41:10;99263.44;;;10.60;100.00
76124;BME280;65173;48.066;20.976;2023-04-25T09:44:23;99273.75;;;10.74;100.00
76124;BME280;65173;48.066;20.976;2023-04-25T09:47:28;99265.53;;;10.67;100.00
76124;BME280;65173;48.066;20.976;2023-04-25T09:50:31;99278.75;;;10.63;100.00
76124;BME280;65173;48.066;20.976;2023-04-25T09:53:44;99273.91;;;10.53;100.00
76124;BME280;65173;48.066;20.976;2023-04-25T09:57:11;99274.69;;;10.54;100.00
76124;BME280;65173;48.066;20.976;2023-04-25T10:00:15;99277.34;;;10.54;100.00
76124;BME280;65173;48.066;20.976;2023-04-25T10:03:19;99288.56;;;10.47;100.00
76124;BME280;65173;48.066;20.976;2023-04-25T10:06:34;99282.91;;;10.49;100.00
76124;BME280;65173;48.066;20.976;2023-04-25T10:09:38;99296.31;;;10.52;100.00
76124;BME280;65173;48.066;20.976;2023-04-25T10:12:42;99296.44;;;10.43;100.00
76124;BME280;65173;48.066;20.976;2023-04-25T10:15:46;99288.56;;;10.47;100.00
76124;BME280;65173;48.066;20.976;2023-04-25T10:18:49;99301.91;;;10.35;100.00
76124;BME280;65173;48.066;20.976;2023-04-25T10:22:03;99295.47;;;10.36;100.00
76124;BME280;65173;48.066;20.976;2023-04-25T10:25:07;99294.47;;;10.28;100.00
76124;BME280;65173;48.066;20.976;2023-04-25T10:28:10;99298.13;;;10.36;100.00
76124;BME280;65173;48.066;20.976;2023-04-25T10:31:15;99304.22;;;10.24;100.00
76124;BME280;65173;48.066;20.976;2023-04-25T10:34:19;99306.03;;;10.20;100.00
76124;BME280;65173;48.066;20.976;2023-04-25T10:37:25;99301.78;;;10.31;100.00
76124;BME280;65173;48.066;20.976;2023-04-25T10:40:28;99300.00;;;10.23;100.00
76124;BME280;65173;48.066;20.976;2023-04-25T10:46:34;99303.75;;;10.10;100.00
76124;BME280;65173;48.066;20.976;2023-04-25T10:49:42;99307.22;;;10.23;100.00
76124;BME280;65173;48.066;20.976;2023-04-25T10:52:44;99311.34;;;10.20;100.00
76124;BME280;65173;48.066;20.976;2023-04-25T10:55:50;99320.44;;;10.19;100.00
76124;BME280;65173;48.066;20.976;2023-04-25T10:59:19;99317.44;;;10.21;100.00
76124;BME280;65173;48.066;20.976;2023-04-25T11:02:26;99326.09;;;10.30;100.00
76124;BME280;65173;48.066;20.976;2023-04-25T11:05:37;99326.66;;;10.35;100.00
76124;BME280;65173;48.066;20.976;2023-04-25T11:09:01;99326.19;;;10.46;100.00
76124;BME280;65173;48.066;20.976;2023-04-25T11:12:06;99330.19;;;10.52;100.00
76124;BME280;65173;48.066;20.976;2023-04-25T11:15:09;99325.31;;;10.54;100.00
76124;BME280;65173;48.066;20.976;2023-04-25T11:18:16;99329.41;;;10.51;100.00
76124;BME280;65173;48.066;20.976;2023-04-25T11:21:18;99330.28;;;10.43;100.00
76124;BME280;65173;48.066;20.976;2023-04-25T11:24:27;99323.63;;;10.49;100.00
76124;BME280;65173;48.066;20.976;2023-04-25T11:27:29;99321.16;;;10.68;100.00
76124;BME280;65173;48.066;20.976;2023-04-25T11:30:32;99319.16;;;10.65;100.00
76124;BME280;65173;48.066;20.976;2023-04-25T11:33:35;99319.81;;;10.74;100.00
76124;BME280;65173;48.066;20.976;2023-04-25T11:36:38;99308.28;;;10.70;100.00
76124;BME280;65173;48.066;20.976;2023-04-25T11:39:44;99308.97;;;10.55;100.00
76124;BME280;65173;48.066;20.976;2023-04-25T11:42:48;99315.63;;;10.61;100.00
76124;BME280;65173;48.066;20.976;2023-04-25T11:45:51;99313.72;;;10.74;100.00
76124;BME280;65173;48.066;20.976;2023-04-25T11:48:56;99312.91;;;10.86;100.00
76124;BME280;65173;48.066;20.976;2023-04-25T11:52:00;99317.91;;;11.15;100.00
76124;BME280;65173;48.066;20.976;2023-04-25T11:55:29;99319.44;;;11.44;100.00
76124;BME280;65173;48.066;20.976;2023-04-25T11:58:32;99317.59;;;11.60;100.00
76124;BME280;65173;48.066;20.976;2023-04-25T12:01:37;99321.94;;;11.53;100.00
76124;BME280;65173;48.066;20.976;2023-04-25T12:04:40;99319.50;;;11.75;100.00
76124;BME280;65173;48.066;20.976;2023-04-25T12:07:43;99326.72;;;11.75;100.00
76124;BME280;65173;48.066;20.976;2023-04-25T12:10:46;99322.28;;;11.51;100.00
76124;BME280;65173;48.066;20.976;2023-04-25T12:13:51;99321.50;;;11.51;100.00
76124;BME280;65173;48.066;20.976;2023-04-25T12:16:57;99329.38;;;11.59;100.00
76124;BME280;65173;48.066;20.976;2023-04-25T12:20:15;99328.75;;;11.66;100.00
76124;BME280;65173;48.066;20.976;2023-04-25T12:23:26;99331.63;;;11.73;100.00
76124;BME280;65173;48.066;20.976;2023-04-25T12:27:01;99327.34;;;11.84;100.00
76124;BME280;65173;48.066;20.976;2023-04-25T12:30:05;99327.84;;;11.74;100.00
76124;BME280;65173;48.066;20.976;2023-04-25T12:33:09;99328.06;;;11.53;100.00
76124;BME280;65173;48.066;20.976;2023-04-25T12:36:12;99341.50;;;11.57;100.00
76124;BME280;65173;48.066;20.976;2023-04-25T12:42:22;99334.84;;;11.51;100.00
76124;BME280;65173;48.066;20.976;2023-04-25T12:45:24;99334.47;;;11.64;100.00
76124;BME280;65173;48.066;20.976;2023-04-25T12:48:27;99346.09;;;11.72;100.00
76124;BME280;65173;48.066;20.976;2023-04-25T12:51:30;99338.66;;;11.65;100.00
76124;BME280;65173;48.066;20.976;2023-04-25T12:54:35;99340.78;;;11.44;100.00
76124;BME280;65173;48.066;20.976;2023-04-25T12:57:37;99340.28;;;11.10;100.00
76124;BME280;65173;48.066;20.976;2023-04-25T13:00:40;99341.03;;;11.11;100.00
76124;BME280;65173;48.066;20.976;2023-04-25T13:03:43;99347.34;;;11.19;100.00
76124;BME280;65173;48.066;20.976;2023-04-25T13:06:47;99344.44;;;10.84;100.00
76124;BME280;65173;48.066;20.976;2023-04-25T13:09:50;99350.34;;;10.77;100.00
76124;BME280;65173;48.066;20.976;2023-04-25T13:12:52;99344.78;;;10.82;100.00
76124;BME280;65173;48.066;20.976;2023-04-25T13:15:55;99343.66;;;10.83;100.00
76124;BME280;65173;48.066;20.976;2023-04-25T13:18:58;99346.63;;;10.94;100.00
76124;BME280;65173;48.066;20.976;2023-04-25T13:22:01;99349.47;;;10.73;100.00
76124;BME280;65173;48.066;20.976;2023-04-25T13:25:07;99356.44;;;11.18;100.00
76124;BME280;65173;48.066;20.976;2023-04-25T13:28:10;99346.22;;;11.20;100.00
76124;BME280;65173;48.066;20.976;2023-04-25T13:31:13;99347.38;;;11.06;100.00
76124;BME280;65173;48.066;20.976;2023-04-25T13:34:15;99354.91;;;11.17;100.00
76124;BME280;65173;48.066;20.976;2023-04-25T13:37:18;99351.72;;;10.99;100.00
76124;BME280;65173;48.066;20.976;2023-04-25T13:40:21;99359.91;;;11.18;100.00
76124;BME280;65173;48.066;20.976;2023-04-25T13:43:26;99364.28;;;10.98;100.00
76124;BME280;65173;48.066;20.976;2023-04-25T13:46:29;99356.22;;;10.83;100.00
76124;BME280;65173;48.066;20.976;2023-04-25T13:49:47;99354.56;;;10.78;100.00
76124;BME280;65173;48.066;20.976;2023-04-25T13:52:49;99360.28;;;11.04;100.00
76124;BME280;65173;48.066;20.976;2023-04-25T13:55:52;99359.16;;;11.05;100.00
76124;BME280;65173;48.066;20.976;2023-04-25T13:58:54;99365.84;;;10.99;100.00
76124;BME280;65173;48.066;20.976;2023-04-25T14:01:58;99364.28;;;11.10;100.00
76124;BME280;65173;48.066;20.976;2023-04-25T14:05:01;99366.06;;;11.06;100.00
76124;BME280;65173;48.066;20.976;2023-04-25T14:08:06;99367.66;;;11.23;100.00
76124;BME280;65173;48.066;20.976;2023-04-25T14:11:09;99369.28;;;11.40;100.00
76124;BME280;65173;48.066;20.976;2023-04-25T14:14:12;99361.63;;;11.54;100.00
76124;BME280;65173;48.066;20.976;2023-04-25T14:17:21;99367.34;;;11.68;100.00
76124;BME280;65173;48.066;20.976;2023-04-25T14:20:23;99370.41;;;11.55;100.00
76124;BME280;65173;48.066;20.976;2023-04-25T14:23:26;99374.13;;;11.66;100.00
76124;BME280;65173;48.066;20.976;2023-04-25T14:26:29;99370.00;;;11.68;98.51
76124;BME280;65173;48.066;20.976;2023-04-25T14:29:32;99370.09;;;11.56;98.42
76124;BME280;65173;48.066;20.976;2023-04-25T14:32:35;99374.31;;;11.57;99.11
76124;BME280;65173;48.066;20.976;2023-04-25T14:35:38;99375.78;;;11.70;100.00
76124;BME280;65173;48.066;20.976;2023-04-25T14:38:41;99377.31;;;11.56;98.65
76124;BME280;65173;48.066;20.976;2023-04-25T14:41:43;99388.34;;;11.70;100.00
76124;BME280;65173;48.066;20.976;2023-04-25T14:44:46;99382.28;;;11.41;99.82
76124;BME280;65173;48.066;20.976;2023-04-25T14:47:49;99378.19;;;11.60;98.93
76124;BME280;65173;48.066;20.976;2023-04-25T14:50:52;99379.03;;;11.76;99.92
76124;BME280;65173;48.066;20.976;2023-04-25T14:53:55;99391.22;;;11.49;98.69
76124;BME280;65173;48.066;20.976;2023-04-25T14:56:58;99400.69;;;11.74;99.48
76124;BME280;65173;48.066;20.976;2023-04-25T15:00:01;99398.59;;;11.68;97.02
76124;BME280;65173;48.066;20.976;2023-04-25T15:03:06;99402.31;;;11.63;93.99
76124;BME280;65173;48.066;20.976;2023-04-25T15:06:10;99398.59;;;11.68;96.22
76124;BME280;65173;48.066;20.976;2023-04-25T15:09:13;99390.75;;;11.59;95.34
76124;BME280;65173;48.066;20.976;2023-04-25T15:12:16;99396.03;;;11.71;94.78
76124;BME280;65173;48.066;20.976;2023-04-25T15:15:19;99395.41;;;11.90;94.51
76124;BME280;65173;48.066;20.976;2023-04-25T15:18:26;99405.94;;;11.99;93.61
76124;BME280;65173;48.066;20.976;2023-04-25T15:21:30;99405.94;;;11.99;92.91
76124;BME280;65173;48.066;20.976;2023-04-25T15:24:33;99403.19;;;12.11;92.45
76124;BME280;65173;48.066;20.976;2023-04-25T15:27:37;99395.75;;;11.89;94.58
76124;BME280;65173;48.066;20.976;2023-04-25T15:30:43;99398.53;;;11.64;95.25
76124;BME280;65173;48.066;20.976;2023-04-25T15:33:46;99399.09;;;11.86;95.47
76124;BME280;65173;48.066;20.976;2023-04-25T15:36:49;99401.09;;;11.61;92.95
76124;BME280;65173;48.066;20.976;2023-04-25T15:40:07;99402.66;;;11.62;94.63
76124;BME280;65173;48.066;20.976;2023-04-25T15:43:15;99399.78;;;11.55;94.33
76124;BME280;65173;48.066;20.976;2023-04-25T15:46:18;99417.09;;;11.33;93.59
76124;BME280;65173;48.066;20.976;2023-04-25T15:49:21;99412.78;;;11.28;93.38
76124;BME280;65173;48.066;20.976;2023-04-25T15:52:24;99420.75;;;11.40;93.74
76124;BME280;65173;48.066;20.976;2023-04-25T15:55:27;99418.13;;;11.28;90.40
76124;BME280;65173;48.066;20.976;2023-04-25T15:58:31;99415.38;;;11.00;90.63
76124;BME280;65173;48.066;20.976;2023-04-25T16:01:33;99406.38;;;10.93;87.38
76124;BME280;65173;48.066;20.976;2023-04-25T16:04:36;99413.19;;;10.90;89.29
76124;BME280;65173;48.066;20.976;2023-04-25T16:07:41;99405.09;;;10.87;87.78
76124;BME280;65173;48.066;20.976;2023-04-25T16:10:44;99412.09;;;10.79;86.94
76124;BME280;65173;48.066;20.976;2023-04-25T16:13:46;99406.88;;;10.83;87.17